CheckWX is a tool to help pilots better visualize weather data.  It is not intended as a substitute for an official pre-flight weather briefing.

20:44:46 UTC

DXNG METAR
Niamtougou International Airport
Niamtougou, Togo
Current

2 hours ago

DXNG 161900Z 14002KT 9999 TS SCT006 FEW016CB 23/21 Q1016
Observed
Jul-16 @ 19:00 UTC
Wind
  • 140° at 2 KTS
Visibility
10,000+ meters
Flight Rules
VFR
Conditions
Thunderstorm
Cloud Levels
  • Scattered at 600' AGL
  • Few at 1,600' AGL
Temperature
23°C / 73°F
Dewpoint
21°C / 70°F
Humidity
89%
Altimeter
30" Hg
Pressure
1015.92 hPa
Previous

3 hours ago

DXNG 161800Z 18003KT 8000 TS SCT006 FEW016CB 23/21 Q1016
Observed
Jul-16 @ 18:00 UTC
Wind
  • 180° at 3 KTS
Visibility
8,000 meters
Flight Rules
MVFR
Conditions
Thunderstorm
Cloud Levels
  • Scattered at 600' AGL
  • Few at 1,600' AGL
Temperature
23°C / 73°F
Dewpoint
21°C / 70°F
Humidity
89%
Altimeter
30" Hg
Pressure
1015.92 hPa
Previous

6 hours ago

DXNG 161500Z 29007KT 260V310 8000 -TSRA BKN006 FEW016CB 24/22 Q1014
Observed
Jul-16 @ 15:00 UTC
Wind
  • 290° at 7 KTS
Visibility
8,000 meters
Flight Rules
IFR
Conditions
Light Thunderstorm, Light Rain
Cloud Levels
  • Broken at 600' AGL
  • Few at 1,600' AGL
Temperature
24°C / 75°F
Dewpoint
22°C / 72°F
Humidity
89%
Altimeter
29.94" Hg
Pressure
1013.92 hPa